CSF5 weather

Markerville/Safron Farms Airport
Markerville, Ontario, Canada

Public forecast

Using degrees Celsius for public forecast. Weather courtesy of forecast.io.

Closest aviation weather report (METAR) to Markerville/Safron Farms Airport

Closest report is Red Deer Regional Airport, 12.7 nm (23.5 km) E. Retrieved 2020/07/12 10:00 UTC (15 minutes ago):

CYQF 121000Z AUTO 29007KT 9SM -RA BKN080 OVC100 15/10 A2979 RMK SLP088 DENSITY ALT 3800FT

Closest aviation forecast (TAF) to Markerville/Safron Farms Airport

Closest forecast is Red Deer Regional Airport, 12.7 nm (23.5 km) E. Retrieved 2020/07/12 06:39 UTC (4 hours ago):

TAF CYQF 120538Z 1206/1218 16010KT P6SM BKN200 BECMG 1206/1208 20008KT FM120800 32010G20KT P6SM BKN080 TEMPO 1208/1218 P6SM -SHRA OVC060 RMK FCST BASED ON AUTO OBS NXT FCST BY 121200Z